JST725 YSSY-YMHB
Flight info
| Callsign | JST725 |
|---|---|
| Flight time | 1h 35m |
| Altitude | 36000 |
| Route | SY3/25 TESAT H65 WOL H20 MOTRA/N0399F200 W407 TASUM |
| Aircraft | A320/M-SDE3FGHIRWY/LB1 |
Departure
| Time | 2026-05-07 08:58 |
|---|---|
| Airport | Sydney Kingsford Smith International Airport (YSSY) |
Arrival
| Time | 2026-05-07 10:34 |
|---|---|
| Airport | Hobart International Airport (YMHB) |
| Time | Latitude | Longitude | Altitude | Speed | Heading |
|---|---|---|---|---|---|
| 2026-05-07 08:15 | -33.93514 | 151.17696 | 30 ft | 0 kts | 101° |
| 2026-05-07 08:48 | -33.93514 | 151.17690 | 30 ft | 3 kts | 99° |
| 2026-05-07 08:48 | -33.93512 | 151.17664 | 30 ft | 3 kts | 86° |
| 2026-05-07 08:48 | -33.93513 | 151.17637 | 30 ft | 3 kts | 93° |
| 2026-05-07 08:49 | -33.93510 | 151.17614 | 30 ft | 3 kts | 111° |
| 2026-05-07 08:49 | -33.93499 | 151.17593 | 30 ft | 3 kts | 149° |
| 2026-05-07 08:49 | -33.93479 | 151.17584 | 30 ft | 2 kts | 167° |
| 2026-05-07 08:49 | -33.93478 | 151.17584 | 30 ft | 0 kts | 167° |
| 2026-05-07 08:53 | -33.93479 | 151.17584 | 30 ft | 1 kts | 167° |
| 2026-05-07 08:53 | -33.93487 | 151.17586 | 30 ft | 4 kts | 167° |
| 2026-05-07 08:53 | -33.93544 | 151.17601 | 30 ft | 11 kts | 168° |
| 2026-05-07 08:54 | -33.93624 | 151.17626 | 30 ft | 13 kts | 157° |
| 2026-05-07 08:54 | -33.93710 | 151.17676 | 30 ft | 15 kts | 159° |
| 2026-05-07 08:54 | -33.93812 | 151.17703 | 30 ft | 14 kts | 167° |
| 2026-05-07 08:54 | -33.93838 | 151.17788 | 30 ft | 13 kts | 73° |
| 2026-05-07 08:55 | -33.93810 | 151.17901 | 30 ft | 15 kts | 73° |
| 2026-05-07 08:55 | -33.93779 | 151.18029 | 30 ft | 17 kts | 74° |
| 2026-05-07 08:55 | -33.93746 | 151.18173 | 30 ft | 19 kts | 74° |
| 2026-05-07 08:55 | -33.93709 | 151.18332 | 30 ft | 21 kts | 74° |
| 2026-05-07 08:56 | -33.93668 | 151.18506 | 30 ft | 22 kts | 74° |
| 2026-05-07 08:56 | -33.93628 | 151.18672 | 30 ft | 19 kts | 74° |
| 2026-05-07 08:56 | -33.93594 | 151.18813 | 30 ft | 15 kts | 74° |
| 2026-05-07 08:56 | -33.93630 | 151.18930 | 29 ft | 17 kts | 148° |
| 2026-05-07 08:57 | -33.93754 | 151.18947 | 29 ft | 18 kts | 212° |
| 2026-05-07 08:57 | -33.93794 | 151.18812 | 25 ft | 17 kts | 254° |
| 2026-05-07 08:57 | -33.93841 | 151.18617 | 28 ft | 46 kts | 254° |
| 2026-05-07 08:57 | -33.93983 | 151.18010 | 29 ft | 102 kts | 254° |
| 2026-05-07 08:58 | -33.94201 | 151.17009 | 72 ft | 137 kts | 256° |
| 2026-05-07 08:58 | -33.94432 | 151.15937 | 691 ft | 128 kts | 258° |
| 2026-05-07 08:58 | -33.94645 | 151.14844 | 1203 ft | 135 kts | 255° |
| 2026-05-07 08:58 | -33.94889 | 151.13758 | 1818 ft | 136 kts | 252° |
| 2026-05-07 08:59 | -33.95163 | 151.12584 | 2086 ft | 157 kts | 251° |
| 2026-05-07 08:59 | -33.95481 | 151.11224 | 2315 ft | 181 kts | 252° |
| 2026-05-07 08:59 | -33.95843 | 151.09671 | 2655 ft | 204 kts | 249° |
| 2026-05-07 08:59 | -33.96625 | 151.08194 | 3239 ft | 218 kts | 220° |
| 2026-05-07 09:00 | -33.98008 | 151.07393 | 4123 ft | 226 kts | 200° |
| 2026-05-07 09:00 | -33.99498 | 151.06765 | 5072 ft | 227 kts | 203° |
| 2026-05-07 09:00 | -34.00971 | 151.06041 | 5964 ft | 230 kts | 204° |
| 2026-05-07 09:00 | -34.02453 | 151.05284 | 6798 ft | 233 kts | 203° |
| 2026-05-07 09:01 | -34.03962 | 151.04515 | 7589 ft | 237 kts | 203° |
| 2026-05-07 09:01 | -34.05498 | 151.03743 | 8357 ft | 242 kts | 203° |
| 2026-05-07 09:01 | -34.07077 | 151.02960 | 9097 ft | 248 kts | 203° |
| 2026-05-07 09:01 | -34.08694 | 151.02167 | 9870 ft | 253 kts | 203° |
| 2026-05-07 09:02 | -34.10354 | 151.01356 | 10409 ft | 267 kts | 203° |
| 2026-05-07 09:02 | -34.12150 | 151.00477 | 10599 ft | 291 kts | 202° |
| 2026-05-07 09:02 | -34.14095 | 150.99529 | 10745 ft | 312 kts | 202° |
| 2026-05-07 09:02 | -34.16160 | 150.98528 | 11121 ft | 324 kts | 202° |
| 2026-05-07 09:03 | -34.18267 | 150.97505 | 11753 ft | 329 kts | 202° |
| 2026-05-07 09:03 | -34.20397 | 150.96465 | 12425 ft | 332 kts | 202° |
| 2026-05-07 09:03 | -34.22545 | 150.95414 | 13086 ft | 334 kts | 202° |
| 2026-05-07 09:03 | -34.24710 | 150.94353 | 13713 ft | 338 kts | 202° |
| 2026-05-07 09:04 | -34.26900 | 150.93278 | 14327 ft | 341 kts | 202° |
| 2026-05-07 09:04 | -34.29103 | 150.92198 | 14982 ft | 342 kts | 202° |
| 2026-05-07 09:04 | -34.31316 | 150.91113 | 15559 ft | 345 kts | 202° |
| 2026-05-07 09:04 | -34.33539 | 150.90023 | 16236 ft | 345 kts | 202° |
| 2026-05-07 09:05 | -34.35766 | 150.88930 | 16956 ft | 344 kts | 202° |
| 2026-05-07 09:05 | -34.37988 | 150.87842 | 17723 ft | 343 kts | 201° |
| 2026-05-07 09:05 | -34.40198 | 150.86760 | 18481 ft | 343 kts | 201° |
| 2026-05-07 09:05 | -34.42408 | 150.85678 | 19133 ft | 342 kts | 201° |
| 2026-05-07 09:06 | -34.44606 | 150.84603 | 19782 ft | 341 kts | 201° |
| 2026-05-07 09:06 | -34.46800 | 150.83529 | 20411 ft | 341 kts | 200° |
| 2026-05-07 09:06 | -34.48999 | 150.82452 | 21035 ft | 341 kts | 200° |
| 2026-05-07 09:06 | -34.51206 | 150.81367 | 21607 ft | 342 kts | 200° |
| 2026-05-07 09:07 | -34.53407 | 150.80271 | 22175 ft | 341 kts | 200° |
| 2026-05-07 09:07 | -34.55603 | 150.79185 | 22695 ft | 341 kts | 201° |
| 2026-05-07 09:07 | -34.57716 | 150.77849 | 23198 ft | 344 kts | 204° |
| 2026-05-07 09:07 | -34.59817 | 150.76458 | 23750 ft | 342 kts | 205° |
| 2026-05-07 09:08 | -34.61906 | 150.75066 | 24073 ft | 344 kts | 205° |
| 2026-05-07 09:08 | -34.64005 | 150.73668 | 24385 ft | 346 kts | 206° |
| 2026-05-07 09:08 | -34.66123 | 150.72259 | 24700 ft | 347 kts | 206° |
| 2026-05-07 09:08 | -34.68249 | 150.70857 | 25003 ft | 350 kts | 206° |
| 2026-05-07 09:09 | -34.70403 | 150.69445 | 25318 ft | 353 kts | 205° |
| 2026-05-07 09:09 | -34.72572 | 150.68014 | 25665 ft | 356 kts | 206° |
| 2026-05-07 09:09 | -34.74747 | 150.66564 | 26053 ft | 356 kts | 206° |
| 2026-05-07 09:09 | -34.76927 | 150.65110 | 26411 ft | 358 kts | 206° |
| 2026-05-07 09:10 | -34.79116 | 150.63652 | 26721 ft | 359 kts | 206° |
| 2026-05-07 09:10 | -34.81318 | 150.62195 | 27019 ft | 362 kts | 206° |
| 2026-05-07 09:10 | -34.83520 | 150.60732 | 27462 ft | 362 kts | 206° |
| 2026-05-07 09:10 | -34.85716 | 150.59264 | 27906 ft | 358 kts | 206° |
| 2026-05-07 09:11 | -34.87898 | 150.57805 | 28392 ft | 358 kts | 206° |
| 2026-05-07 09:11 | -34.90078 | 150.56346 | 28903 ft | 354 kts | 205° |
| 2026-05-07 09:11 | -34.92238 | 150.54911 | 29344 ft | 354 kts | 206° |
| 2026-05-07 09:11 | -34.94406 | 150.53503 | 29793 ft | 351 kts | 202° |
| 2026-05-07 09:12 | -34.96699 | 150.52506 | 30224 ft | 350 kts | 194° |
| 2026-05-07 09:12 | -34.99064 | 150.51807 | 30603 ft | 350 kts | 194° |
| 2026-05-07 09:12 | -35.01437 | 150.51100 | 30911 ft | 351 kts | 194° |
| 2026-05-07 09:12 | -35.03808 | 150.50404 | 31140 ft | 351 kts | 194° |
| 2026-05-07 09:13 | -35.06200 | 150.49692 | 31389 ft | 355 kts | 194° |
| 2026-05-07 09:13 | -35.08601 | 150.48976 | 31648 ft | 357 kts | 194° |
| 2026-05-07 09:13 | -35.11008 | 150.48260 | 31891 ft | 357 kts | 194° |
| 2026-05-07 09:13 | -35.13441 | 150.47536 | 32166 ft | 360 kts | 195° |
| 2026-05-07 09:14 | -35.15884 | 150.46806 | 32436 ft | 362 kts | 195° |
| 2026-05-07 09:14 | -35.18337 | 150.46069 | 32696 ft | 363 kts | 195° |
| 2026-05-07 09:14 | -35.20799 | 150.45344 | 33059 ft | 360 kts | 195° |
| 2026-05-07 09:14 | -35.23240 | 150.44615 | 33417 ft | 359 kts | 195° |
| 2026-05-07 09:15 | -35.25659 | 150.43892 | 33653 ft | 359 kts | 195° |
| 2026-05-07 09:15 | -35.28113 | 150.43155 | 33931 ft | 363 kts | 195° |
| 2026-05-07 09:15 | -35.30559 | 150.42411 | 34261 ft | 363 kts | 195° |
| 2026-05-07 09:15 | -35.33009 | 150.41669 | 34490 ft | 365 kts | 195° |
| 2026-05-07 09:16 | -35.35494 | 150.40929 | 34727 ft | 368 kts | 195° |
| 2026-05-07 09:16 | -35.37996 | 150.40182 | 35001 ft | 371 kts | 196° |
| 2026-05-07 09:16 | -35.40512 | 150.39426 | 35259 ft | 374 kts | 196° |
| 2026-05-07 09:16 | -35.43044 | 150.38674 | 35475 ft | 375 kts | 196° |
| 2026-05-07 09:17 | -35.45576 | 150.37927 | 35636 ft | 375 kts | 197° |
| 2026-05-07 09:17 | -35.48132 | 150.37164 | 35828 ft | 379 kts | 197° |
| 2026-05-07 09:17 | -35.50692 | 150.36394 | 36026 ft | 380 kts | 196° |
| 2026-05-07 09:17 | -35.53278 | 150.35617 | 36108 ft | 385 kts | 196° |
| 2026-05-07 09:18 | -35.58504 | 150.34046 | 36108 ft | 391 kts | 197° |
| 2026-05-07 09:18 | -35.63835 | 150.32422 | 36120 ft | 397 kts | 197° |
| 2026-05-07 09:19 | -35.69206 | 150.30823 | 36144 ft | 397 kts | 196° |
| 2026-05-07 09:19 | -35.74562 | 150.29213 | 36106 ft | 396 kts | 196° |
| 2026-05-07 09:20 | -35.79907 | 150.27578 | 36119 ft | 398 kts | 196° |
| 2026-05-07 09:20 | -35.85312 | 150.25952 | 36113 ft | 401 kts | 196° |
| 2026-05-07 09:21 | -35.90723 | 150.24283 | 36127 ft | 400 kts | 196° |
| 2026-05-07 09:21 | -35.96132 | 150.22652 | 36125 ft | 400 kts | 196° |
| 2026-05-07 09:22 | -36.01521 | 150.21022 | 36117 ft | 398 kts | 196° |
| 2026-05-07 09:22 | -36.06908 | 150.19369 | 36128 ft | 396 kts | 196° |
| 2026-05-07 09:23 | -36.12271 | 150.17735 | 36125 ft | 395 kts | 196° |
| 2026-05-07 09:23 | -36.17609 | 150.16107 | 36083 ft | 397 kts | 196° |
| 2026-05-07 09:24 | -36.22989 | 150.14469 | 36094 ft | 398 kts | 196° |
| 2026-05-07 09:24 | -36.28368 | 150.12796 | 36101 ft | 398 kts | 196° |
| 2026-05-07 09:25 | -36.33752 | 150.11135 | 36121 ft | 399 kts | 196° |
| 2026-05-07 09:25 | -36.39119 | 150.09481 | 36107 ft | 396 kts | 196° |
| 2026-05-07 09:26 | -36.43576 | 150.08124 | 36122 ft | 396 kts | 196° |
| 2026-05-07 09:26 | -36.48933 | 150.06480 | 36120 ft | 398 kts | 196° |
| 2026-05-07 09:27 | -36.54293 | 150.04823 | 36119 ft | 396 kts | 196° |
| 2026-05-07 09:28 | -36.62311 | 150.02348 | 36099 ft | 397 kts | 196° |
| 2026-05-07 09:28 | -36.67688 | 150.00676 | 36122 ft | 399 kts | 196° |
| 2026-05-07 09:29 | -36.73065 | 149.99008 | 36116 ft | 398 kts | 196° |
| 2026-05-07 09:29 | -36.78469 | 149.97345 | 36116 ft | 397 kts | 196° |
| 2026-05-07 09:30 | -36.83829 | 149.95680 | 36116 ft | 397 kts | 196° |
| 2026-05-07 09:30 | -36.89194 | 149.94010 | 36139 ft | 397 kts | 196° |
| 2026-05-07 09:31 | -36.94548 | 149.92339 | 36138 ft | 396 kts | 196° |
| 2026-05-07 09:31 | -36.99884 | 149.90666 | 36129 ft | 395 kts | 196° |
| 2026-05-07 09:32 | -37.05208 | 149.89000 | 36123 ft | 395 kts | 196° |
| 2026-05-07 09:32 | -37.10543 | 149.87325 | 36117 ft | 395 kts | 196° |
| 2026-05-07 09:33 | -37.15865 | 149.85655 | 36121 ft | 394 kts | 196° |
| 2026-05-07 09:33 | -37.21195 | 149.83981 | 36120 ft | 394 kts | 197° |
| 2026-05-07 09:34 | -37.26491 | 149.82312 | 36124 ft | 394 kts | 196° |
| 2026-05-07 09:34 | -37.31817 | 149.80639 | 36120 ft | 395 kts | 196° |
| 2026-05-07 09:35 | -37.37150 | 149.78952 | 36119 ft | 396 kts | 196° |
| 2026-05-07 09:35 | -37.42496 | 149.77267 | 36118 ft | 396 kts | 196° |
| 2026-05-07 09:36 | -37.47846 | 149.75572 | 36114 ft | 397 kts | 197° |
| 2026-05-07 09:36 | -37.53203 | 149.73865 | 36106 ft | 398 kts | 197° |
| 2026-05-07 09:37 | -37.58577 | 149.72159 | 36104 ft | 399 kts | 197° |
| 2026-05-07 09:37 | -37.63965 | 149.70337 | 36110 ft | 398 kts | 198° |
| 2026-05-07 09:38 | -37.69289 | 149.68364 | 36115 ft | 399 kts | 199° |
| 2026-05-07 09:38 | -37.74617 | 149.66368 | 36109 ft | 400 kts | 198° |
| 2026-05-07 09:39 | -37.79932 | 149.64419 | 36102 ft | 401 kts | 198° |
| 2026-05-07 09:39 | -37.85293 | 149.62472 | 36121 ft | 401 kts | 198° |
| 2026-05-07 09:40 | -37.90667 | 149.60514 | 36109 ft | 402 kts | 198° |
| 2026-05-07 09:40 | -37.96036 | 149.58527 | 36083 ft | 402 kts | 199° |
| 2026-05-07 09:41 | -38.01403 | 149.56547 | 36092 ft | 402 kts | 198° |
| 2026-05-07 09:41 | -38.06786 | 149.54578 | 36110 ft | 402 kts | 199° |
| 2026-05-07 09:42 | -38.12160 | 149.52600 | 36101 ft | 402 kts | 198° |
| 2026-05-07 09:42 | -38.17525 | 149.50619 | 36093 ft | 402 kts | 199° |
| 2026-05-07 09:43 | -38.22892 | 149.48633 | 36108 ft | 401 kts | 199° |
| 2026-05-07 09:43 | -38.28259 | 149.46648 | 36099 ft | 402 kts | 199° |
| 2026-05-07 09:44 | -38.33626 | 149.44647 | 36092 ft | 401 kts | 199° |
| 2026-05-07 09:44 | -38.38987 | 149.42650 | 36104 ft | 401 kts | 199° |
| 2026-05-07 09:45 | -38.44387 | 149.40646 | 36094 ft | 401 kts | 199° |
| 2026-05-07 09:45 | -38.49716 | 149.38667 | 36087 ft | 401 kts | 199° |
| 2026-05-07 09:46 | -38.55082 | 149.36660 | 36084 ft | 401 kts | 199° |
| 2026-05-07 09:46 | -38.60445 | 149.34658 | 36066 ft | 402 kts | 199° |
| 2026-05-07 09:47 | -38.65816 | 149.32655 | 36076 ft | 402 kts | 199° |
| 2026-05-07 09:47 | -38.71183 | 149.30647 | 36081 ft | 402 kts | 199° |
| 2026-05-07 09:48 | -38.76561 | 149.28625 | 36076 ft | 402 kts | 199° |
| 2026-05-07 09:48 | -38.81934 | 149.26604 | 36070 ft | 402 kts | 199° |
| 2026-05-07 09:49 | -38.87296 | 149.24581 | 36074 ft | 402 kts | 199° |
| 2026-05-07 09:49 | -38.92655 | 149.22555 | 36090 ft | 401 kts | 199° |
| 2026-05-07 09:50 | -38.98017 | 149.20529 | 36073 ft | 401 kts | 200° |
| 2026-05-07 09:50 | -39.03373 | 149.18498 | 36070 ft | 402 kts | 200° |
| 2026-05-07 09:51 | -39.08737 | 149.16467 | 36067 ft | 402 kts | 200° |
| 2026-05-07 09:51 | -39.14136 | 149.14412 | 36092 ft | 408 kts | 200° |
| 2026-05-07 09:52 | -39.19572 | 149.12354 | 36065 ft | 404 kts | 200° |
| 2026-05-07 09:52 | -39.24903 | 149.10341 | 36039 ft | 400 kts | 200° |
| 2026-05-07 09:53 | -39.30249 | 149.08299 | 36047 ft | 400 kts | 200° |
| 2026-05-07 09:53 | -39.35594 | 149.06243 | 36043 ft | 403 kts | 200° |
| 2026-05-07 09:54 | -39.40930 | 149.04185 | 36023 ft | 400 kts | 200° |
| 2026-05-07 09:54 | -39.46298 | 149.02146 | 36041 ft | 405 kts | 201° |
| 2026-05-07 09:55 | -39.51680 | 149.00096 | 36047 ft | 403 kts | 201° |
| 2026-05-07 09:55 | -39.57091 | 148.97996 | 36049 ft | 407 kts | 201° |
| 2026-05-07 09:56 | -39.62521 | 148.95901 | 36055 ft | 407 kts | 201° |
| 2026-05-07 09:56 | -39.67911 | 148.93820 | 36056 ft | 402 kts | 202° |
| 2026-05-07 09:57 | -39.73247 | 148.91749 | 36041 ft | 399 kts | 202° |
| 2026-05-07 09:57 | -39.78599 | 148.89661 | 36016 ft | 404 kts | 202° |
| 2026-05-07 09:58 | -39.83974 | 148.87581 | 36034 ft | 403 kts | 202° |
| 2026-05-07 09:58 | -39.89368 | 148.85502 | 36019 ft | 403 kts | 202° |
| 2026-05-07 09:59 | -39.94718 | 148.83417 | 35993 ft | 400 kts | 202° |
| 2026-05-07 09:59 | -40.00094 | 148.81323 | 36025 ft | 405 kts | 202° |
| 2026-05-07 10:00 | -40.05563 | 148.79173 | 36022 ft | 409 kts | 202° |
| 2026-05-07 10:00 | -40.11013 | 148.77049 | 36021 ft | 408 kts | 202° |
| 2026-05-07 10:01 | -40.16459 | 148.74924 | 36023 ft | 408 kts | 202° |
| 2026-05-07 10:01 | -40.21899 | 148.72797 | 36007 ft | 408 kts | 202° |
| 2026-05-07 10:02 | -40.26414 | 148.71022 | 36000 ft | 408 kts | 203° |
| 2026-05-07 10:02 | -40.31848 | 148.68876 | 35997 ft | 408 kts | 203° |
| 2026-05-07 10:03 | -40.37293 | 148.66720 | 35995 ft | 409 kts | 203° |
| 2026-05-07 10:03 | -40.42748 | 148.64578 | 35996 ft | 409 kts | 202° |
| 2026-05-07 10:04 | -40.48205 | 148.62425 | 35994 ft | 409 kts | 203° |
| 2026-05-07 10:04 | -40.53654 | 148.60272 | 35997 ft | 410 kts | 203° |
| 2026-05-07 10:05 | -40.59116 | 148.58097 | 35984 ft | 411 kts | 203° |
| 2026-05-07 10:05 | -40.64593 | 148.55912 | 35977 ft | 411 kts | 203° |
| 2026-05-07 10:06 | -40.70072 | 148.53727 | 35982 ft | 412 kts | 203° |
| 2026-05-07 10:06 | -40.75571 | 148.51535 | 35966 ft | 414 kts | 203° |
| 2026-05-07 10:07 | -40.81089 | 148.49331 | 35955 ft | 415 kts | 203° |
| 2026-05-07 10:07 | -40.86615 | 148.47112 | 35963 ft | 415 kts | 203° |
| 2026-05-07 10:08 | -40.92154 | 148.44887 | 35953 ft | 416 kts | 203° |
| 2026-05-07 10:08 | -40.97697 | 148.42664 | 35947 ft | 417 kts | 203° |
| 2026-05-07 10:09 | -41.03251 | 148.40430 | 35967 ft | 417 kts | 203° |
| 2026-05-07 10:09 | -41.08805 | 148.38195 | 35961 ft | 417 kts | 203° |
| 2026-05-07 10:10 | -41.14354 | 148.35960 | 35955 ft | 416 kts | 203° |
| 2026-05-07 10:10 | -41.19891 | 148.33720 | 35931 ft | 416 kts | 203° |
| 2026-05-07 10:11 | -41.25434 | 148.31466 | 35924 ft | 417 kts | 203° |
| 2026-05-07 10:11 | -41.30989 | 148.29201 | 35920 ft | 418 kts | 203° |
| 2026-05-07 10:12 | -41.36527 | 148.26842 | 35951 ft | 417 kts | 205° |
| 2026-05-07 10:12 | -41.39248 | 148.25538 | 35730 ft | 415 kts | 206° |
| 2026-05-07 10:12 | -41.41952 | 148.24188 | 35487 ft | 414 kts | 206° |
| 2026-05-07 10:12 | -41.44646 | 148.22822 | 35241 ft | 414 kts | 207° |
| 2026-05-07 10:13 | -41.47338 | 148.21461 | 34893 ft | 413 kts | 206° |
| 2026-05-07 10:13 | -41.50028 | 148.20112 | 34187 ft | 414 kts | 206° |
| 2026-05-07 10:13 | -41.52733 | 148.18768 | 33331 ft | 416 kts | 206° |
| 2026-05-07 10:13 | -41.55451 | 148.17435 | 32529 ft | 416 kts | 206° |
| 2026-05-07 10:14 | -41.58172 | 148.16108 | 31709 ft | 416 kts | 206° |
| 2026-05-07 10:14 | -41.60895 | 148.14780 | 30869 ft | 417 kts | 206° |
| 2026-05-07 10:14 | -41.63624 | 148.13450 | 30011 ft | 418 kts | 206° |
| 2026-05-07 10:14 | -41.66361 | 148.12111 | 28999 ft | 419 kts | 206° |
| 2026-05-07 10:15 | -41.69096 | 148.10766 | 28028 ft | 419 kts | 206° |
| 2026-05-07 10:15 | -41.71830 | 148.09418 | 27014 ft | 419 kts | 205° |
| 2026-05-07 10:15 | -41.74570 | 148.08062 | 25939 ft | 421 kts | 205° |
| 2026-05-07 10:15 | -41.77315 | 148.06703 | 25145 ft | 417 kts | 205° |
| 2026-05-07 10:16 | -41.80010 | 148.05371 | 24460 ft | 410 kts | 205° |
| 2026-05-07 10:16 | -41.82671 | 148.04056 | 23747 ft | 405 kts | 205° |
| 2026-05-07 10:16 | -41.85297 | 148.02756 | 22976 ft | 400 kts | 204° |
| 2026-05-07 10:16 | -41.87889 | 148.01473 | 22287 ft | 394 kts | 204° |
| 2026-05-07 10:17 | -41.90438 | 148.00208 | 21599 ft | 387 kts | 204° |
| 2026-05-07 10:17 | -41.92941 | 147.98962 | 20940 ft | 380 kts | 204° |
| 2026-05-07 10:17 | -41.95405 | 147.97738 | 20275 ft | 375 kts | 204° |
| 2026-05-07 10:17 | -41.97839 | 147.96528 | 19631 ft | 370 kts | 204° |
| 2026-05-07 10:18 | -42.00243 | 147.95329 | 18986 ft | 367 kts | 204° |
| 2026-05-07 10:18 | -42.02625 | 147.94140 | 18358 ft | 364 kts | 204° |
| 2026-05-07 10:18 | -42.04990 | 147.92954 | 17702 ft | 361 kts | 204° |
| 2026-05-07 10:18 | -42.07334 | 147.91781 | 17112 ft | 357 kts | 204° |
| 2026-05-07 10:19 | -42.09654 | 147.90622 | 16549 ft | 353 kts | 204° |
| 2026-05-07 10:19 | -42.11948 | 147.89483 | 15998 ft | 349 kts | 204° |
| 2026-05-07 10:19 | -42.14213 | 147.88357 | 15470 ft | 344 kts | 203° |
| 2026-05-07 10:19 | -42.16441 | 147.87248 | 14944 ft | 339 kts | 203° |
| 2026-05-07 10:20 | -42.18642 | 147.86150 | 14421 ft | 335 kts | 203° |
| 2026-05-07 10:20 | -42.20812 | 147.85066 | 13907 ft | 330 kts | 203° |
| 2026-05-07 10:20 | -42.22950 | 147.83993 | 13331 ft | 326 kts | 204° |
| 2026-05-07 10:20 | -42.25053 | 147.82935 | 12790 ft | 321 kts | 204° |
| 2026-05-07 10:21 | -42.27129 | 147.81889 | 12246 ft | 316 kts | 204° |
| 2026-05-07 10:21 | -42.29177 | 147.80857 | 11701 ft | 313 kts | 204° |
| 2026-05-07 10:21 | -42.31208 | 147.79833 | 11158 ft | 310 kts | 204° |
| 2026-05-07 10:21 | -42.33201 | 147.78831 | 10891 ft | 298 kts | 204° |
| 2026-05-07 10:22 | -42.35150 | 147.78045 | 10771 ft | 288 kts | 197° |
| 2026-05-07 10:22 | -42.37106 | 147.77723 | 10636 ft | 278 kts | 191° |
| 2026-05-07 10:22 | -42.38982 | 147.77495 | 10513 ft | 263 kts | 192° |
| 2026-05-07 10:22 | -42.40775 | 147.77274 | 10326 ft | 256 kts | 193° |
| 2026-05-07 10:23 | -42.42533 | 147.77046 | 10078 ft | 252 kts | 193° |
| 2026-05-07 10:23 | -42.44269 | 147.76815 | 9885 ft | 250 kts | 194° |
| 2026-05-07 10:23 | -42.46001 | 147.76578 | 9760 ft | 250 kts | 193° |
| 2026-05-07 10:23 | -42.47732 | 147.76344 | 9641 ft | 250 kts | 193° |
| 2026-05-07 10:24 | -42.49463 | 147.76116 | 9492 ft | 249 kts | 193° |
| 2026-05-07 10:24 | -42.51192 | 147.75895 | 9360 ft | 250 kts | 194° |
| 2026-05-07 10:24 | -42.52922 | 147.75671 | 9224 ft | 250 kts | 193° |
| 2026-05-07 10:24 | -42.54655 | 147.75447 | 9084 ft | 250 kts | 193° |
| 2026-05-07 10:25 | -42.56399 | 147.75224 | 8683 ft | 254 kts | 194° |
| 2026-05-07 10:25 | -42.58149 | 147.74999 | 8324 ft | 251 kts | 194° |
| 2026-05-07 10:25 | -42.59900 | 147.74768 | 7897 ft | 252 kts | 195° |
| 2026-05-07 10:25 | -42.61631 | 147.74540 | 7598 ft | 248 kts | 195° |
| 2026-05-07 10:26 | -42.63346 | 147.74308 | 7236 ft | 248 kts | 194° |
| 2026-05-07 10:26 | -42.65022 | 147.74084 | 7090 ft | 237 kts | 195° |
| 2026-05-07 10:26 | -42.66636 | 147.73879 | 6953 ft | 230 kts | 195° |
| 2026-05-07 10:26 | -42.68208 | 147.73672 | 6725 ft | 226 kts | 195° |
| 2026-05-07 10:27 | -42.69767 | 147.73463 | 6351 ft | 226 kts | 196° |
| 2026-05-07 10:27 | -42.71334 | 147.73258 | 5991 ft | 227 kts | 196° |
| 2026-05-07 10:27 | -42.72899 | 147.73050 | 5642 ft | 228 kts | 195° |
| 2026-05-07 10:27 | -42.74493 | 147.72849 | 5302 ft | 233 kts | 196° |
| 2026-05-07 10:28 | -42.76116 | 147.72628 | 4956 ft | 237 kts | 196° |
| 2026-05-07 10:28 | -42.77761 | 147.72406 | 4620 ft | 239 kts | 195° |
| 2026-05-07 10:28 | -42.79406 | 147.72195 | 4281 ft | 232 kts | 195° |
| 2026-05-07 10:28 | -42.80985 | 147.71947 | 3950 ft | 221 kts | 203° |
| 2026-05-07 10:29 | -42.82307 | 147.71166 | 3649 ft | 197 kts | 223° |
| 2026-05-07 10:29 | -42.83379 | 147.70135 | 3383 ft | 184 kts | 223° |
| 2026-05-07 10:29 | -42.84411 | 147.69133 | 3123 ft | 184 kts | 223° |
| 2026-05-07 10:30 | -42.86489 | 147.67125 | 2597 ft | 182 kts | 223° |
| 2026-05-07 10:30 | -42.87466 | 147.66088 | 2354 ft | 173 kts | 232° |
| 2026-05-07 10:30 | -42.88201 | 147.64853 | 2169 ft | 165 kts | 244° |
| 2026-05-07 10:30 | -42.88691 | 147.63469 | 1921 ft | 154 kts | 256° |
| 2026-05-07 10:31 | -42.88924 | 147.62137 | 1735 ft | 136 kts | 267° |
| 2026-05-07 10:31 | -42.88961 | 147.60873 | 1539 ft | 132 kts | 278° |
| 2026-05-07 10:31 | -42.88826 | 147.59649 | 1369 ft | 130 kts | 287° |
| 2026-05-07 10:31 | -42.88539 | 147.58499 | 1193 ft | 130 kts | 295° |
| 2026-05-07 10:32 | -42.88097 | 147.57418 | 1023 ft | 128 kts | 304° |
| 2026-05-07 10:32 | -42.87538 | 147.56496 | 858 ft | 127 kts | 316° |
| 2026-05-07 10:32 | -42.86905 | 147.55640 | 803 ft | 131 kts | 316° |
| 2026-05-07 10:32 | -42.86255 | 147.54770 | 687 ft | 132 kts | 317° |
| 2026-05-07 10:33 | -42.85602 | 147.53879 | 381 ft | 131 kts | 315° |
| 2026-05-07 10:33 | -42.84969 | 147.53008 | 173 ft | 129 kts | 317° |
| 2026-05-07 10:33 | -42.84343 | 147.52149 | 33 ft | 122 kts | 318° |
| 2026-05-07 10:33 | -42.83833 | 147.51478 | 20 ft | 78 kts | 314° |
| 2026-05-07 10:34 | -42.83566 | 147.51113 | 27 ft | 35 kts | 315° |
| 2026-05-07 10:34 | -42.83400 | 147.50887 | 24 ft | 30 kts | 313° |
| 2026-05-07 10:34 | -42.83318 | 147.50736 | 19 ft | 21 kts | 283° |
| 2026-05-07 10:34 | -42.83360 | 147.50586 | 22 ft | 12 kts | 227° |
| 2026-05-07 10:35 | -42.83438 | 147.50571 | 22 ft | 13 kts | 139° |
| 2026-05-07 10:35 | -42.83506 | 147.50664 | 26 ft | 14 kts | 134° |
| 2026-05-07 10:35 | -42.83580 | 147.50766 | 26 ft | 16 kts | 135° |
| 2026-05-07 10:35 | -42.83644 | 147.50842 | 25 ft | 9 kts | 161° |
| 2026-05-07 10:36 | -42.83699 | 147.50789 | 24 ft | 13 kts | 255° |
| 2026-05-07 10:36 | -42.83662 | 147.50705 | 23 ft | 8 kts | 316° |
| 2026-05-07 10:36 | -42.83668 | 147.50632 | 22 ft | 7 kts | 255° |
| 2026-05-07 10:36 | -42.83679 | 147.50609 | 24 ft | 1 kts | 224° |
| 2026-05-07 10:37 | -42.83681 | 147.50607 | 22 ft | 0 kts | 225° |
| 2026-05-07 10:38 | -42.83681 | 147.50606 | 22 ft | 0 kts | 225° |